createdAt,value
2019-05-13T00:00:15.139Z,10.07
2019-05-13T00:02:44.023Z,10.09
2019-05-13T00:05:14.629Z,10.07
2019-05-13T00:07:44.021Z,10.06
2019-05-13T00:10:14.928Z,10.04
2019-05-13T00:12:44.754Z,10.05
2019-05-13T00:15:15.579Z,10.04
2019-05-13T00:17:44.772Z,10.03
2019-05-13T00:20:14.311Z,9.88
2019-05-13T00:22:44.735Z,9.94
2019-05-13T00:25:14.504Z,9.92
2019-05-13T00:27:44.500Z,9.82
2019-05-13T00:30:14.564Z,9.87
2019-05-13T00:32:44.573Z,9.67
2019-05-13T00:35:14.168Z,9.64
2019-05-13T00:37:44.252Z,9.66
2019-05-13T00:40:14.371Z,9.51
2019-05-13T00:42:44.077Z,9.42
2019-05-13T00:45:14.558Z,9.41
2019-05-13T00:47:43.862Z,9.34
2019-05-13T00:50:14.228Z,9.40
2019-05-13T00:52:44.934Z,9.32
2019-05-13T00:55:14.861Z,9.35
2019-05-13T00:57:44.079Z,9.27
2019-05-13T01:00:14.025Z,9.18
2019-05-13T01:02:44.590Z,9.17
2019-05-13T01:05:14.612Z,9.25
2019-05-13T01:07:44.327Z,9.21
2019-05-13T01:10:13.822Z,9.16
2019-05-13T01:12:44.012Z,9.22
2019-05-13T01:15:13.458Z,9.17
2019-05-13T01:17:44.729Z,9.04
2019-05-13T01:20:14.459Z,9.03
2019-05-13T01:22:44.097Z,9.10
2019-05-13T01:25:14.521Z,9.05
2019-05-13T01:27:44.445Z,9.04
2019-05-13T01:30:13.707Z,9.01
2019-05-13T01:32:44.642Z,8.97
2019-05-13T01:35:14.837Z,8.88
2019-05-13T01:37:46.211Z,8.86
2019-05-13T01:40:14.720Z,8.78
2019-05-13T01:42:44.470Z,8.72
2019-05-13T01:45:14.145Z,8.76
2019-05-13T01:47:44.184Z,8.72
2019-05-13T01:50:14.397Z,8.73
2019-05-13T01:52:44.541Z,8.60
2019-05-13T01:55:14.481Z,8.58
2019-05-13T01:57:44.444Z,8.61
2019-05-13T02:00:14.418Z,8.60
2019-05-13T02:02:44.535Z,8.59
2019-05-13T02:05:14.243Z,8.52
2019-05-13T02:07:56.545Z,8.42
2019-05-13T02:10:15.787Z,8.45
2019-05-13T02:12:45.010Z,8.50
2019-05-13T02:15:14.834Z,8.45
2019-05-13T02:17:44.694Z,8.39
2019-05-13T02:20:14.964Z,8.37
2019-05-13T02:22:44.552Z,8.34
2019-05-13T02:25:13.991Z,8.50
2019-05-13T02:27:43.962Z,8.34
2019-05-13T02:30:16.183Z,8.31
2019-05-13T02:32:43.451Z,8.28
2019-05-13T02:35:13.992Z,8.11
2019-05-13T02:37:43.832Z,8.04
2019-05-13T02:40:13.880Z,8.34
2019-05-13T02:42:43.631Z,8.23
2019-05-13T02:45:13.376Z,8.26
2019-05-13T02:47:44.331Z,8.08
2019-05-13T02:50:13.201Z,8.13
2019-05-13T02:52:44.323Z,7.97
2019-05-13T02:55:12.627Z,8.06
2019-05-13T02:57:43.599Z,7.95
2019-05-13T03:00:13.215Z,8.06
2019-05-13T03:02:43.817Z,8.01
2019-05-13T03:05:13.981Z,8.01
2019-05-13T03:07:43.126Z,7.95
2019-05-13T03:10:13.566Z,7.79
2019-05-13T03:12:43.034Z,7.81
2019-05-13T03:15:13.228Z,7.83
2019-05-13T03:17:52.886Z,7.81
2019-05-13T03:20:22.996Z,7.87
2019-05-13T03:22:52.571Z,7.77
2019-05-13T03:25:22.672Z,7.78
2019-05-13T03:27:53.975Z,7.70
2019-05-13T03:30:25.197Z,7.70
2019-05-13T03:33:00.531Z,7.87
2019-05-13T03:35:26.843Z,7.81
2019-05-13T03:37:53.370Z,7.71
2019-05-13T03:40:23.270Z,7.60
2019-05-13T03:42:53.641Z,7.56
2019-05-13T03:45:24.630Z,7.47
2019-05-13T03:47:55.763Z,7.42
2019-05-13T03:50:24.286Z,7.39
2019-05-13T03:52:52.967Z,7.47
2019-05-13T03:55:23.434Z,7.38
2019-05-13T03:57:53.350Z,7.44
2019-05-13T04:00:23.650Z,7.32
2019-05-13T04:02:53.159Z,7.35
2019-05-13T04:05:23.265Z,7.39
2019-05-13T04:07:52.643Z,7.47
2019-05-13T04:10:23.029Z,7.30
2019-05-13T04:12:53.001Z,7.20
2019-05-13T04:15:23.740Z,7.33
2019-05-13T04:17:53.272Z,7.38
2019-05-13T04:20:23.229Z,7.36
2019-05-13T04:22:53.363Z,7.31
2019-05-13T04:25:23.154Z,7.33
2019-05-13T04:27:53.528Z,7.41
2019-05-13T04:30:22.785Z,7.39
2019-05-13T04:32:53.282Z,7.46
2019-05-13T04:35:23.350Z,7.55
2019-05-13T04:37:52.936Z,7.59
2019-05-13T04:40:23.015Z,7.60
2019-05-13T04:42:53.540Z,7.57
2019-05-13T04:45:24.038Z,7.61
2019-05-13T04:47:53.067Z,7.60
2019-05-13T04:50:22.725Z,7.72
2019-05-13T04:52:53.051Z,7.80
2019-05-13T04:55:22.973Z,7.87
2019-05-13T04:57:53.266Z,7.89
2019-05-13T05:00:50.042Z,7.92
2019-05-13T05:03:32.054Z,7.99
2019-05-13T05:05:57.168Z,8.01
2019-05-13T05:08:52.766Z,8.07
2019-05-13T05:11:43.866Z,8.19
2019-05-13T05:14:27.280Z,8.27
2019-05-13T05:17:32.867Z,8.33
2019-05-13T05:20:25.109Z,8.43
2019-05-13T05:23:08.116Z,8.55
2019-05-13T05:25:41.625Z,8.63
2019-05-13T05:28:15.409Z,8.64
2019-05-13T05:30:58.721Z,8.63
2019-05-13T05:33:58.960Z,8.82
2019-05-13T05:36:48.587Z,8.89
2019-05-13T05:39:22.421Z,9.04
2019-05-13T05:41:53.521Z,9.17
2019-05-13T05:44:25.266Z,9.26
2019-05-13T05:46:56.491Z,9.32
2019-05-13T05:49:26.996Z,9.46
2019-05-13T05:52:07.094Z,9.66
2019-05-13T05:54:38.266Z,9.83
2019-05-13T05:57:08.893Z,9.89
2019-05-13T05:59:38.896Z,9.95
2019-05-13T06:02:08.612Z,10.13
2019-05-13T06:04:37.423Z,10.38
2019-05-13T06:07:06.242Z,10.59
2019-05-13T06:09:34.731Z,10.50
2019-05-13T06:12:03.237Z,10.92
2019-05-13T06:14:32.834Z,11.18
2019-05-13T06:17:02.655Z,11.26
2019-05-13T06:19:32.260Z,11.60
2019-05-13T06:22:02.344Z,11.82
2019-05-13T06:24:31.515Z,12.13
2019-05-13T06:27:01.718Z,12.47
2019-05-13T06:29:31.626Z,12.79
2019-05-13T06:32:15.295Z,12.93
2019-05-13T06:34:32.609Z,13.40
2019-05-13T06:37:02.174Z,13.60
2019-05-13T06:39:31.730Z,14.11
2019-05-13T06:42:02.729Z,14.37
2019-05-13T06:44:31.590Z,14.51
2019-05-13T06:47:02.652Z,14.90
2019-05-13T06:49:32.205Z,15.52
2019-05-13T06:52:01.726Z,15.86
2019-05-13T06:54:33.155Z,15.84
2019-05-13T06:57:04.313Z,16.16
2019-05-13T06:59:31.751Z,16.77
2019-05-13T07:02:02.034Z,17.32
2019-05-13T07:04:32.631Z,17.65
2019-05-13T07:07:12.375Z,17.61
2019-05-13T07:09:32.270Z,17.86
2019-05-13T07:12:02.848Z,17.84
2019-05-13T07:14:32.408Z,17.86
2019-05-13T07:17:02.081Z,18.08
2019-05-13T07:19:32.283Z,18.44
2019-05-13T07:22:03.182Z,18.61
2019-05-13T07:24:32.477Z,18.36
2019-05-13T07:27:01.777Z,18.59
2019-05-13T07:29:32.539Z,18.71
2019-05-13T07:32:01.836Z,18.69
2019-05-13T07:34:33.646Z,19.33
2019-05-13T07:37:02.366Z,19.86
2019-05-13T07:39:32.940Z,19.69
2019-05-13T07:42:05.267Z,19.99
2019-05-13T07:44:32.552Z,20.38
2019-05-13T07:47:03.421Z,20.70
2019-05-13T07:49:31.882Z,20.44
2019-05-13T07:52:01.646Z,20.12
2019-05-13T07:54:32.888Z,20.59
2019-05-13T07:57:02.056Z,20.38
2019-05-13T07:59:31.936Z,20.18
2019-05-13T08:02:02.055Z,21.58
2019-05-13T08:04:33.490Z,21.33
2019-05-13T08:07:02.210Z,20.50
2019-05-13T08:09:31.876Z,21.22
2019-05-13T08:12:09.860Z,20.27
2019-05-13T08:14:32.685Z,21.46
2019-05-13T08:17:02.626Z,20.25
2019-05-13T08:19:32.576Z,21.16
2019-05-13T08:22:02.132Z,21.43
2019-05-13T08:24:31.554Z,21.08
2019-05-13T08:27:02.227Z,21.04
2019-05-13T08:29:32.860Z,21.27
2019-05-13T08:32:02.833Z,21.35
2019-05-13T08:34:32.871Z,21.74
2019-05-13T08:37:02.801Z,21.51
2019-05-13T08:39:33.461Z,21.03
2019-05-13T08:42:12.948Z,20.83
2019-05-13T08:44:32.295Z,20.79
2019-05-13T08:47:03.111Z,20.95
2019-05-13T08:49:32.509Z,20.55
2019-05-13T08:52:01.841Z,20.85
2019-05-13T08:54:32.844Z,20.73
2019-05-13T08:57:02.820Z,21.31
2019-05-13T08:59:32.134Z,21.63
2019-05-13T09:04:31.725Z,21.23
2019-05-13T09:07:02.193Z,20.20
2019-05-13T09:09:31.597Z,20.48
2019-05-13T09:12:02.602Z,20.98
2019-05-13T09:14:32.409Z,20.83
2019-05-13T09:17:02.074Z,21.26
2019-05-13T09:19:32.144Z,22.99
2019-05-13T09:22:02.976Z,21.11
2019-05-13T09:24:37.237Z,20.24
2019-05-13T09:27:02.089Z,19.88
2019-05-13T09:29:32.232Z,20.43
2019-05-13T09:32:03.700Z,20.88
2019-05-13T09:34:32.748Z,21.76
2019-05-13T09:37:02.716Z,21.50
2019-05-13T09:39:32.419Z,21.99
2019-05-13T09:42:02.607Z,22.30
2019-05-13T09:44:32.850Z,20.98
2019-05-13T09:47:02.665Z,19.53
2019-05-13T09:49:32.775Z,20.34
2019-05-13T09:52:02.051Z,20.93
2019-05-13T09:54:32.562Z,21.15
2019-05-13T09:57:01.912Z,20.46
2019-05-13T09:59:31.857Z,19.70
2019-05-13T10:02:02.848Z,19.42
2019-05-13T10:07:02.809Z,19.08
2019-05-13T10:09:32.623Z,18.47
2019-05-13T10:12:03.067Z,18.47
2019-05-13T10:14:32.965Z,17.47
2019-05-13T10:17:05.985Z,17.15
2019-05-13T10:19:33.279Z,17.81
2019-05-13T10:22:01.991Z,17.33
2019-05-13T10:24:32.786Z,16.88
2019-05-13T10:27:02.524Z,16.83
2019-05-13T10:29:32.115Z,16.92
2019-05-13T10:32:02.736Z,16.88
2019-05-13T10:34:32.560Z,16.60
2019-05-13T10:37:02.141Z,17.05
2019-05-13T10:39:31.237Z,17.85
2019-05-13T10:42:03.047Z,17.95
2019-05-13T10:44:29.891Z,17.97
2019-05-13T10:46:58.549Z,17.93
2019-05-13T10:49:27.027Z,18.00
2019-05-13T10:51:55.504Z,17.77
2019-05-13T10:54:23.995Z,17.63
2019-05-13T10:56:54.217Z,17.63
2019-05-13T10:59:23.177Z,17.59
2019-05-13T11:01:51.828Z,17.36
2019-05-13T11:04:22.187Z,17.33
2019-05-13T11:06:52.424Z,17.38
2019-05-13T11:09:21.844Z,17.15
2019-05-13T11:11:52.815Z,17.11
2019-05-13T11:14:21.945Z,17.28
2019-05-13T11:16:52.254Z,17.10
2019-05-13T11:19:23.177Z,16.87
2019-05-13T11:21:51.861Z,16.91
2019-05-13T11:24:22.748Z,16.94
2019-05-13T11:26:53.131Z,16.93
2019-05-13T11:29:23.007Z,17.03
2019-05-13T11:31:52.357Z,16.53
2019-05-13T11:34:22.133Z,16.14
2019-05-13T11:36:53.382Z,16.19
2019-05-13T11:39:21.865Z,15.89
2019-05-13T11:41:50.643Z,15.75
2019-05-13T11:44:19.149Z,15.73
2019-05-13T11:46:47.657Z,15.84
2019-05-13T11:49:16.203Z,15.74
2019-05-13T11:51:45.071Z,15.87
2019-05-13T11:54:14.271Z,16.10
2019-05-13T11:56:49.193Z,16.14
2019-05-13T11:59:13.970Z,16.23
2019-05-13T12:01:42.952Z,16.23
2019-05-13T12:04:11.616Z,15.73
2019-05-13T12:06:48.021Z,15.89
2019-05-13T12:09:13.083Z,15.92
2019-05-13T12:11:40.777Z,16.10
2019-05-13T12:14:34.751Z,16.23
2019-05-13T12:16:42.339Z,16.05
2019-05-13T12:19:11.847Z,16.11
2019-05-13T12:21:43.252Z,15.91
2019-05-13T12:24:11.278Z,16.06
2019-05-13T12:26:43.080Z,16.22
2019-05-13T12:29:17.897Z,16.33
2019-05-13T12:31:40.501Z,16.17
2019-05-13T12:34:12.750Z,16.21
2019-05-13T12:36:43.012Z,16.13
2019-05-13T12:39:13.967Z,16.27
2019-05-13T12:41:42.075Z,16.20
2019-05-13T12:44:12.725Z,16.39
2019-05-13T12:46:41.509Z,16.20
2019-05-13T12:49:14.164Z,16.15
2019-05-13T12:51:43.853Z,15.98
2019-05-13T12:54:13.566Z,16.16
2019-05-13T12:56:42.520Z,16.15
2019-05-13T12:59:13.335Z,16.12
2019-05-13T13:01:42.301Z,16.06
2019-05-13T13:04:12.298Z,16.11
2019-05-13T13:06:45.111Z,16.08
2019-05-13T13:09:12.818Z,15.98
2019-05-13T13:11:43.661Z,15.84
2019-05-13T13:14:15.607Z,15.75
2019-05-13T13:16:42.353Z,15.92
2019-05-13T13:19:14.659Z,15.70
2019-05-13T13:21:41.509Z,15.79
2019-05-13T13:24:12.297Z,15.78
2019-05-13T13:26:42.741Z,15.87
2019-05-13T13:29:10.401Z,15.89
2019-05-13T13:31:42.721Z,15.73
2019-05-13T13:34:13.570Z,15.64
2019-05-13T13:36:39.459Z,15.70
2019-05-13T13:39:09.072Z,15.66
2019-05-13T13:41:37.544Z,15.60
2019-05-13T13:44:06.044Z,15.57
2019-05-13T13:46:42.491Z,15.50
2019-05-13T13:49:05.924Z,15.59
2019-05-13T13:51:34.655Z,15.78
2019-05-13T13:54:03.101Z,15.92
2019-05-13T13:56:32.596Z,15.95
2019-05-13T13:59:04.343Z,16.14
2019-05-13T14:01:33.334Z,16.23
2019-05-13T14:04:03.822Z,16.24
2019-05-13T14:06:25.036Z,21.69
2019-05-13T14:06:25.465Z,18.95
2019-05-13T14:07:22.255Z,16.13
2019-05-13T14:09:02.261Z,16.01
2019-05-13T14:11:33.121Z,16.09
2019-05-13T14:14:02.168Z,16.22
2019-05-13T14:16:34.901Z,16.26
2019-05-13T14:19:01.069Z,16.19
2019-05-13T14:21:32.243Z,16.26
2019-05-13T14:24:02.430Z,16.11
2019-05-13T14:26:32.428Z,15.86
2019-05-13T14:29:02.679Z,16.09
2019-05-13T14:31:32.402Z,15.95
2019-05-13T14:34:03.388Z,15.88
2019-05-13T14:36:30.787Z,15.94
2019-05-13T14:38:59.244Z,15.92
2019-05-13T14:41:27.733Z,16.09
2019-05-13T14:43:56.206Z,16.16
2019-05-13T14:46:35.367Z,16.18
2019-05-13T14:48:54.921Z,16.12
2019-05-13T14:51:23.412Z,16.06
2019-05-13T14:53:52.167Z,15.93
2019-05-13T14:56:22.190Z,15.73
2019-05-13T14:58:52.082Z,15.75
2019-05-13T15:01:22.693Z,15.82
2019-05-13T15:03:52.142Z,15.87
2019-05-13T15:06:22.062Z,15.65
2019-05-13T15:08:52.726Z,15.67
2019-05-13T15:11:21.920Z,15.60
2019-05-13T15:13:51.817Z,15.66
2019-05-13T15:16:22.413Z,15.58
2019-05-13T15:18:52.419Z,15.36
2019-05-13T15:21:21.459Z,15.46
2019-05-13T15:23:51.816Z,15.48
2019-05-13T15:26:22.244Z,15.45
2019-05-13T15:28:51.907Z,15.51
2019-05-13T15:31:22.122Z,15.58
2019-05-13T15:33:52.452Z,15.60
2019-05-13T15:36:22.539Z,15.63
2019-05-13T15:38:52.019Z,15.68
2019-05-13T15:41:20.804Z,15.69
2019-05-13T15:43:51.244Z,15.71
2019-05-13T15:46:21.791Z,15.67
2019-05-13T15:48:51.441Z,15.62
2019-05-13T15:51:22.104Z,15.58
2019-05-13T15:53:51.731Z,15.53
2019-05-13T15:56:22.342Z,15.52
2019-05-13T15:58:53.021Z,15.59
2019-05-13T16:01:23.007Z,15.42
2019-05-13T16:03:52.528Z,15.33
2019-05-13T16:06:21.369Z,15.31
2019-05-13T16:08:51.867Z,15.25
2019-05-13T16:11:21.973Z,15.28
2019-05-13T16:13:51.855Z,15.30
2019-05-13T16:16:21.832Z,15.32
2019-05-13T16:18:51.606Z,15.31
2019-05-13T16:21:20.227Z,15.30
2019-05-13T16:23:48.691Z,15.41
2019-05-13T16:26:17.153Z,15.44
2019-05-13T16:28:45.724Z,15.35
2019-05-13T16:31:14.169Z,15.31
2019-05-13T16:33:42.665Z,15.33
2019-05-13T16:36:12.638Z,15.27
2019-05-13T16:38:41.868Z,15.28
2019-05-13T16:41:12.392Z,15.28
2019-05-13T16:43:42.636Z,15.27
2019-05-13T16:46:12.148Z,15.10
2019-05-13T16:48:41.621Z,15.12
2019-05-13T16:51:12.332Z,15.11
2019-05-13T16:53:42.245Z,15.08
2019-05-13T16:56:25.279Z,15.12
2019-05-13T16:58:41.861Z,15.13
2019-05-13T17:01:11.718Z,15.08
2019-05-13T17:03:41.508Z,15.00
2019-05-13T17:06:12.466Z,14.92
2019-05-13T17:08:42.513Z,14.77
2019-05-13T17:11:11.740Z,14.77
2019-05-13T17:13:42.125Z,14.74
2019-05-13T17:16:10.940Z,14.71
2019-05-13T17:18:41.478Z,14.64
2019-05-13T17:21:09.689Z,14.65
2019-05-13T17:23:38.176Z,14.48
2019-05-13T17:26:06.640Z,14.48
2019-05-13T17:28:35.140Z,14.43
2019-05-13T17:31:03.587Z,14.38
2019-05-13T17:33:32.159Z,14.35
2019-05-13T17:36:01.936Z,14.37
2019-05-13T17:38:32.361Z,14.27
2019-05-13T17:41:02.157Z,14.37
2019-05-13T17:43:32.003Z,14.20
2019-05-13T17:46:00.803Z,14.19
2019-05-13T17:48:32.085Z,14.05
2019-05-13T17:51:01.407Z,14.19
2019-05-13T17:53:32.263Z,14.20
2019-05-13T17:56:02.151Z,14.26
2019-05-13T17:58:31.430Z,14.20
2019-05-13T18:01:01.723Z,14.11
2019-05-13T18:03:31.986Z,14.06
2019-05-13T18:06:02.297Z,14.00
2019-05-13T18:08:32.014Z,14.02
2019-05-13T18:11:02.181Z,13.89
2019-05-13T18:13:31.482Z,13.91
2019-05-13T18:16:02.447Z,13.86
2019-05-13T18:18:40.448Z,13.83
2019-05-13T18:21:01.517Z,13.80
2019-05-13T18:23:30.193Z,13.81
2019-05-13T18:25:58.652Z,13.73
2019-05-13T18:28:31.117Z,13.73
2019-05-13T18:30:57.325Z,13.70
2019-05-13T18:33:25.790Z,13.64
2019-05-13T18:35:54.267Z,13.49
2019-05-13T18:38:22.772Z,13.45
2019-05-13T18:40:52.623Z,13.43
2019-05-13T18:43:21.666Z,13.52
2019-05-13T18:45:52.533Z,13.39
2019-05-13T18:48:21.848Z,13.27
2019-05-13T18:50:52.350Z,13.33
2019-05-13T18:53:21.467Z,13.26
2019-05-13T18:55:52.409Z,13.29
2019-05-13T18:58:22.198Z,13.24
2019-05-13T19:00:52.229Z,13.19
2019-05-13T19:03:21.786Z,13.25
2019-05-13T19:05:51.985Z,13.16
2019-05-13T19:08:21.433Z,13.12
2019-05-13T19:10:52.031Z,13.06
2019-05-13T19:13:21.802Z,13.11
2019-05-13T19:15:51.674Z,13.11
2019-05-13T19:18:21.438Z,13.07
2019-05-13T19:20:51.347Z,13.01
2019-05-13T19:23:19.936Z,12.93
2019-05-13T19:25:48.434Z,12.95
2019-05-13T19:28:16.882Z,13.01
2019-05-13T19:30:45.354Z,12.97
2019-05-13T19:33:13.818Z,12.97
2019-05-13T19:35:42.709Z,12.96
2019-05-13T19:38:12.123Z,12.91
2019-05-13T19:40:41.881Z,12.83
2019-05-13T19:43:11.556Z,12.72
2019-05-13T19:45:41.623Z,12.70
2019-05-13T19:48:11.815Z,12.68
2019-05-13T19:50:41.610Z,12.75
2019-05-13T19:53:12.039Z,12.66
2019-05-13T19:55:41.474Z,12.66
2019-05-13T19:58:12.354Z,12.44
2019-05-13T20:00:42.412Z,12.47
2019-05-13T20:03:11.736Z,12.38
2019-05-13T20:05:41.513Z,12.37
2019-05-13T20:08:10.197Z,12.37
2019-05-13T20:10:38.682Z,12.36
2019-05-13T20:13:07.151Z,12.37
2019-05-13T20:15:35.633Z,12.35
2019-05-13T20:18:04.278Z,12.26
2019-05-13T20:20:33.038Z,12.20
2019-05-13T20:23:01.999Z,12.06
2019-05-13T20:25:31.196Z,12.18
2019-05-13T20:28:02.145Z,12.13
2019-05-13T20:30:30.073Z,12.14
2019-05-13T20:32:58.549Z,12.10
2019-05-13T20:35:27.019Z,12.04
2019-05-13T20:37:55.511Z,11.86
2019-05-13T20:40:24.040Z,11.92
2019-05-13T20:42:52.524Z,11.97
2019-05-13T20:45:22.449Z,11.99
2019-05-13T20:47:51.218Z,11.78
2019-05-13T20:50:21.748Z,11.79
2019-05-13T20:52:51.605Z,11.75
2019-05-13T20:55:22.079Z,11.70
2019-05-13T20:57:53.076Z,11.62
2019-05-13T21:00:20.943Z,11.59
2019-05-13T21:02:51.525Z,11.52
2019-05-13T21:05:21.829Z,11.50
2019-05-13T21:07:51.605Z,11.38
2019-05-13T21:10:21.072Z,11.42
2019-05-13T21:12:51.434Z,11.23
2019-05-13T21:15:20.091Z,11.21
2019-05-13T21:17:48.587Z,11.29
2019-05-13T21:20:22.161Z,11.31
2019-05-13T21:22:47.495Z,11.22
2019-05-13T21:25:16.859Z,11.27
2019-05-13T21:27:45.321Z,11.23
2019-05-13T21:30:14.041Z,11.27
2019-05-13T21:32:42.606Z,11.30
2019-05-13T21:35:11.982Z,11.23
2019-05-13T21:37:40.582Z,11.11
2019-05-13T21:40:11.149Z,11.03
2019-05-13T21:42:41.886Z,11.17
2019-05-13T21:45:11.236Z,11.02
2019-05-13T21:47:39.938Z,11.12
2019-05-13T21:50:11.345Z,10.81
2019-05-13T21:52:41.692Z,10.93
2019-05-13T21:55:11.340Z,10.73
2019-05-13T21:57:41.570Z,10.86
2019-05-13T22:00:13.267Z,10.90
2019-05-13T22:02:41.745Z,10.73
2019-05-13T22:05:11.713Z,10.47
2019-05-13T22:07:42.130Z,10.69
2019-05-13T22:10:11.900Z,10.75
2019-05-13T22:12:41.459Z,10.68
2019-05-13T22:15:11.489Z,10.70
2019-05-13T22:17:42.077Z,10.56
2019-05-13T22:20:12.264Z,10.44
2019-05-13T22:22:41.534Z,10.37
2019-05-13T22:25:12.178Z,10.57
2019-05-13T22:27:41.352Z,10.41
2019-05-13T22:30:11.886Z,10.38
2019-05-13T22:32:41.778Z,10.37
2019-05-13T22:35:11.334Z,10.46
2019-05-13T22:37:39.905Z,10.41
2019-05-13T22:40:11.296Z,10.35
2019-05-13T22:42:41.559Z,10.33
2019-05-13T22:45:11.764Z,10.47
2019-05-13T22:47:41.702Z,10.49
2019-05-13T22:50:12.820Z,10.43
2019-05-13T22:52:41.833Z,10.44
2019-05-13T22:55:11.530Z,10.33
2019-05-13T22:57:41.938Z,10.34
2019-05-13T23:00:11.844Z,10.39
2019-05-13T23:02:42.147Z,10.41
2019-05-13T23:05:11.402Z,10.38
2019-05-13T23:07:40.080Z,10.26
2019-05-13T23:10:11.641Z,10.20
2019-05-13T23:12:41.891Z,10.18
2019-05-13T23:15:11.960Z,10.04
2019-05-13T23:17:41.497Z,10.05
2019-05-13T23:20:10.714Z,10.16
2019-05-13T23:22:41.308Z,10.04
2019-05-13T23:25:11.986Z,10.02
2019-05-13T23:27:41.505Z,9.93
2019-05-13T23:30:11.678Z,9.85
2019-05-13T23:32:40.292Z,9.95
2019-05-13T23:35:10.983Z,9.80
2019-05-13T23:37:41.516Z,9.81
2019-05-13T23:40:11.844Z,9.68
2019-05-13T23:42:40.464Z,9.84
2019-05-13T23:45:11.473Z,9.89
2019-05-13T23:47:41.566Z,9.76
2019-05-13T23:50:12.473Z,9.66
2019-05-13T23:52:41.855Z,9.63
2019-05-13T23:55:11.020Z,9.59
2019-05-13T23:57:41.950Z,9.47
